Time;durP1;ratioP1;P1;durP2;ratioP2;P2;SDS_P1;SDS_P2;PMS_P1;PMS_P2;Temp;Humidity;BMP_temperature;BMP_pressure;BME280_temperature;BME280_humidity;BME280_pressure;Samples;Min_cycle;Max_cycle;Signal;HPM_P1;HPM_P2
2023/07/09 00:00:50;;;;;;;8.63;4.70;;;18.50;95.30;;;;;;5032965;28;20274;-59
2023/07/09 00:03:18;;;;;;;9.63;5.33;;;18.50;95.10;;;;;;5039545;28;20560;-60
2023/07/09 00:05:47;;;;;;;8.40;5.60;;;18.40;95.10;;;;;;5038140;28;20563;-60
2023/07/09 00:08:25;;;;;;;9.33;4.93;;;18.40;95.00;;;;;;5032183;28;20448;-60
2023/07/09 00:10:50;;;;;;;10.30;5.50;;;18.40;95.10;;;;;;5037671;28;20486;-57
2023/07/09 00:13:16;;;;;;;9.50;5.33;;;18.40;95.20;;;;;;5032079;28;20453;-61
2023/07/09 00:15:42;;;;;;;8.30;4.80;;;18.40;95.50;;;;;;5040961;28;20193;-61
2023/07/09 00:18:09;;;;;;;6.37;4.80;;;18.30;95.80;;;;;;5035537;28;20203;-58
2023/07/09 00:20:35;;;;;;;7.70;4.87;;;18.30;96.30;;;;;;5033163;28;20267;-60
2023/07/09 00:23:04;;;;;;;9.40;5.43;;;18.30;96.50;;;;;;5033488;28;20556;-60
2023/07/09 00:25:30;;;;;;;8.97;5.17;;;18.20;96.50;;;;;;5043872;28;20171;-58
2023/07/09 00:27:56;;;;;;;11.17;5.43;;;18.20;96.70;;;;;;5038503;28;20430;-61
2023/07/09 00:30:23;;;;;;;7.43;5.60;;;18.10;96.90;;;;;;5039567;28;20430;-58
2023/07/09 00:32:51;;;;;;;11.10;6.00;;;18.10;97.30;;;;;;5040745;28;20207;-59
2023/07/09 00:35:18;;;;;;;6.50;4.83;;;18.00;97.30;;;;;;5036485;28;20859;-57
2023/07/09 00:37:45;;;;;;;12.20;5.00;;;18.00;97.50;;;;;;5042529;28;20571;-60
2023/07/09 00:40:18;;;;;;;12.43;4.90;;;18.00;97.90;;;;;;5043398;28;20449;-60
2023/07/09 00:42:53;;;;;;;8.23;5.30;;;17.90;98.10;;;;;;5043799;28;20561;-60
2023/07/09 00:45:26;;;;;;;9.30;6.03;;;17.90;97.90;;;;;;5041031;28;20433;-60
2023/07/09 00:48:00;;;;;;;9.97;6.00;;;17.80;98.40;;;;;;5041044;28;20449;-60
2023/07/09 00:50:45;;;;;;;8.10;5.00;;;17.80;98.60;;;;;;5044489;28;20441;-60
2023/07/09 00:53:17;;;;;;;9.50;5.00;;;17.80;98.70;;;;;;5045661;28;20464;-61
2023/07/09 00:55:45;;;;;;;7.70;5.23;;;17.80;99.10;;;;;;5043762;28;20449;-60
2023/07/09 00:58:15;;;;;;;9.67;5.50;;;17.70;99.30;;;;;;5036703;28;20493;-60
2023/07/09 01:00:47;;;;;;;8.07;5.77;;;17.70;99.40;;;;;;5041333;28;20434;-60
2023/07/09 01:03:29;;;;;;;12.80;5.60;;;17.60;99.70;;;;;;5039205;28;20418;-58
2023/07/09 01:05:57;;;;;;;8.43;6.10;;;17.60;99.90;;;;;;5035009;28;20444;-60
2023/07/09 01:08:24;;;;;;;7.27;5.63;;;17.50;99.90;;;;;;5038505;28;21039;-57
2023/07/09 01:10:49;;;;;;;7.10;5.57;;;17.50;99.90;;;;;;5034209;28;20431;-59
2023/07/09 01:13:19;;;;;;;7.83;4.90;;;17.40;99.90;;;;;;5038759;28;20449;-60
2023/07/09 01:15:46;;;;;;;7.33;4.90;;;17.40;99.90;;;;;;5041398;28;20179;-60
2023/07/09 01:18:14;;;;;;;20.80;5.77;;;17.40;99.90;;;;;;5040423;28;20735;-61
2023/07/09 01:20:40;;;;;;;8.10;5.00;;;17.40;99.90;;;;;;5040954;28;20425;-60
2023/07/09 01:23:05;;;;;;;8.80;6.20;;;17.40;99.90;;;;;;5042662;28;20518;-60
2023/07/09 01:25:31;;;;;;;10.20;6.30;;;17.30;99.90;;;;;;5045238;28;20190;-60
2023/07/09 01:27:57;;;;;;;12.27;6.10;;;17.30;99.90;;;;;;5050451;28;20178;-61
2023/07/09 01:30:25;;;;;;;8.07;5.60;;;17.30;99.90;;;;;;5040369;28;20187;-60
2023/07/09 01:32:55;;;;;;;11.27;6.17;;;17.30;99.90;;;;;;5041664;28;20536;-59
2023/07/09 01:35:21;;;;;;;5.50;4.80;;;17.30;99.90;;;;;;5042962;28;20954;-60
2023/07/09 01:37:47;;;;;;;12.77;5.97;;;17.30;99.90;;;;;;5043248;28;20489;-60
2023/07/09 01:40:16;;;;;;;6.60;5.10;;;17.20;99.90;;;;;;5039901;28;20174;-60
2023/07/09 01:42:42;;;;;;;7.93;5.77;;;17.20;99.90;;;;;;5044732;28;20471;-61
2023/07/09 01:45:12;;;;;;;12.20;5.73;;;17.20;99.90;;;;;;5036913;28;20517;-58
2023/07/09 01:47:39;;;;;;;7.90;5.30;;;17.10;99.90;;;;;;5031959;28;20442;-60
2023/07/09 01:50:06;;;;;;;11.30;7.13;;;17.00;99.90;;;;;;5047270;28;20444;-61
2023/07/09 01:52:33;;;;;;;7.50;5.40;;;17.00;99.90;;;;;;5041763;28;20536;-60
2023/07/09 01:54:59;;;;;;;10.60;6.33;;;16.90;99.90;;;;;;5044340;28;20958;-58
2023/07/09 01:57:34;;;;;;;8.13;5.33;;;16.90;99.90;;;;;;5035970;28;20473;-61
2023/07/09 02:00:05;;;;;;;8.87;6.03;;;16.90;99.90;;;;;;5042171;28;20456;-60
2023/07/09 02:02:32;;;;;;;7.73;6.03;;;16.80;99.90;;;;;;5031348;28;20863;-59
2023/07/09 02:04:58;;;;;;;11.67;6.40;;;16.80;99.90;;;;;;5032526;28;20426;-60
2023/07/09 02:07:24;;;;;;;8.03;5.67;;;16.80;99.90;;;;;;5039109;28;20437;-60
2023/07/09 02:09:51;;;;;;;9.10;5.70;;;16.80;99.90;;;;;;5038693;28;20495;-59
2023/07/09 02:12:17;;;;;;;8.80;5.40;;;16.70;99.90;;;;;;5044685;28;20480;-60
2023/07/09 02:14:44;;;;;;;10.90;6.53;;;16.70;99.90;;;;;;5029593;28;20817;-60
2023/07/09 02:17:11;;;;;;;8.20;5.67;;;16.70;99.90;;;;;;5034094;28;20937;-61
2023/07/09 02:19:37;;;;;;;7.30;5.20;;;16.60;99.90;;;;;;5038777;28;20423;-59
2023/07/09 02:22:04;;;;;;;9.73;5.63;;;16.60;99.90;;;;;;5040181;28;20429;-60
2023/07/09 02:24:30;;;;;;;9.07;5.83;;;16.60;99.90;;;;;;5036542;28;20645;-60
2023/07/09 02:26:56;;;;;;;7.83;5.53;;;16.50;99.90;;;;;;5037325;28;20548;-60
2023/07/09 02:29:23;;;;;;;8.50;5.83;;;16.50;99.90;;;;;;5043915;28;20189;-59
2023/07/09 02:31:50;;;;;;;10.53;6.83;;;16.50;99.90;;;;;;5038631;28;20445;-59
2023/07/09 02:34:17;;;;;;;7.70;5.40;;;16.50;99.90;;;;;;5041962;28;20516;-59
2023/07/09 02:36:43;;;;;;;9.20;5.70;;;16.50;99.90;;;;;;5043358;28;20437;-60
2023/07/09 02:39:13;;;;;;;14.13;6.40;;;16.40;99.90;;;;;;5045818;28;21058;-60
2023/07/09 02:41:40;;;;;;;15.60;6.23;;;16.40;99.90;;;;;;5047280;28;20468;-58
2023/07/09 02:44:06;;;;;;;9.30;6.30;;;16.40;99.90;;;;;;5034996;28;20445;-58
2023/07/09 02:46:32;;;;;;;11.47;6.07;;;16.40;99.90;;;;;;5033774;28;20450;-59
2023/07/09 02:48:58;;;;;;;9.00;5.67;;;16.40;99.90;;;;;;5040313;28;20455;-60
2023/07/09 02:51:26;;;;;;;10.53;5.43;;;16.40;99.90;;;;;;5039117;28;20171;-60
2023/07/09 02:53:54;;;;;;;8.90;5.80;;;16.40;99.90;;;;;;5042040;28;20672;-59
2023/07/09 02:56:19;;;;;;;12.67;6.20;;;16.30;99.90;;;;;;5040674;28;20581;-58
2023/07/09 02:58:45;;;;;;;8.10;5.57;;;16.30;99.90;;;;;;5043098;28;21193;-60
2023/07/09 03:01:12;;;;;;;7.40;5.53;;;16.30;99.90;;;;;;5045701;28;20194;-60
2023/07/09 03:03:38;;;;;;;8.73;6.10;;;16.30;99.90;;;;;;5036499;28;20273;-60
2023/07/09 03:06:06;;;;;;;9.27;5.47;;;16.20;99.90;;;;;;5040264;28;20614;-59
2023/07/09 03:08:31;;;;;;;12.83;6.10;;;16.20;99.90;;;;;;5042819;28;20175;-59
2023/07/09 03:10:57;;;;;;;7.77;5.70;;;16.20;99.90;;;;;;5040466;28;20437;-59
2023/07/09 03:13:23;;;;;;;10.87;6.27;;;16.20;99.90;;;;;;5040646;28;20206;-60
2023/07/09 03:15:56;;;;;;;11.00;5.97;;;16.20;99.90;;;;;;5040976;28;20175;-59
2023/07/09 03:18:23;;;;;;;15.63;5.67;;;16.10;99.90;;;;;;5039632;28;20207;-60
2023/07/09 03:20:49;;;;;;;10.90;6.30;;;16.10;99.90;;;;;;5041187;28;20433;-58
2023/07/09 03:23:14;;;;;;;11.37;5.90;;;16.00;99.90;;;;;;5042380;28;20476;-59
2023/07/09 03:25:44;;;;;;;7.83;5.73;;;16.00;99.90;;;;;;5031862;28;20179;-59
2023/07/09 03:28:11;;;;;;;8.30;5.30;;;16.00;99.90;;;;;;5043424;28;20179;-58
2023/07/09 03:30:44;;;;;;;5.90;4.80;;;16.00;99.90;;;;;;5034144;28;20450;-59
2023/07/09 03:33:12;;;;;;;13.60;6.57;;;16.00;99.90;;;;;;5043521;28;20942;-60
2023/07/09 03:35:40;;;;;;;11.87;6.13;;;16.00;99.90;;;;;;5034041;28;20564;-60
2023/07/09 03:38:07;;;;;;;8.07;5.43;;;16.00;99.90;;;;;;5036828;28;20548;-61
2023/07/09 03:40:32;;;;;;;8.47;5.90;;;15.90;99.90;;;;;;5045184;28;20444;-59
2023/07/09 03:42:58;;;;;;;8.73;6.00;;;15.90;99.90;;;;;;5040334;28;20446;-58
2023/07/09 03:45:24;;;;;;;8.70;5.67;;;15.90;99.90;;;;;;5040155;28;20183;-60
2023/07/09 03:47:50;;;;;;;8.17;6.03;;;15.90;99.90;;;;;;5043008;28;20190;-59
2023/07/09 03:50:15;;;;;;;14.50;5.90;;;15.80;99.90;;;;;;5043296;28;20179;-61
2023/07/09 03:52:41;;;;;;;15.50;6.03;;;15.90;99.90;;;;;;5039320;28;20213;-60
2023/07/09 03:55:08;;;;;;;8.27;5.50;;;15.80;99.90;;;;;;5035801;28;20196;-59
2023/07/09 03:57:34;;;;;;;9.60;5.90;;;15.80;99.90;;;;;;5037234;28;20296;-59
2023/07/09 04:00:00;;;;;;;8.73;5.90;;;15.80;99.90;;;;;;5036603;28;20457;-60
2023/07/09 04:02:26;;;;;;;8.53;5.53;;;15.80;99.90;;;;;;5038733;28;20460;-61
2023/07/09 04:04:52;;;;;;;8.33;6.23;;;15.70;99.90;;;;;;5040638;28;20437;-59
2023/07/09 04:07:18;;;;;;;9.20;6.13;;;15.70;99.90;;;;;;5037177;28;20176;-60
2023/07/09 04:09:43;;;;;;;8.23;6.03;;;15.70;99.90;;;;;;5037244;28;20187;-59
2023/07/09 04:12:10;;;;;;;11.03;5.43;;;15.70;99.90;;;;;;5037021;28;20462;-60
2023/07/09 04:14:35;;;;;;;10.07;6.23;;;15.70;99.90;;;;;;5031681;28;20187;-59
2023/07/09 04:17:02;;;;;;;9.20;5.80;;;15.70;99.90;;;;;;5041005;28;20560;-59
2023/07/09 04:19:28;;;;;;;8.87;6.10;;;15.70;99.90;;;;;;5037663;28;20615;-60
2023/07/09 04:21:53;;;;;;;11.53;6.70;;;15.70;99.90;;;;;;5038095;28;20469;-60
2023/07/09 04:24:20;;;;;;;10.73;6.33;;;15.70;99.90;;;;;;5045814;28;20182;-58
2023/07/09 04:26:46;;;;;;;13.67;6.77;;;15.80;99.90;;;;;;5038500;28;20209;-60
2023/07/09 04:29:12;;;;;;;8.37;5.93;;;15.80;99.90;;;;;;5033920;28;20480;-60
2023/07/09 04:31:38;;;;;;;10.20;6.10;;;15.80;99.90;;;;;;5038254;28;20461;-59
2023/07/09 04:34:04;;;;;;;10.77;6.10;;;15.80;99.90;;;;;;5039592;28;20176;-58
2023/07/09 04:36:31;;;;;;;9.03;5.90;;;15.90;99.90;;;;;;5036806;28;20437;-59
2023/07/09 04:38:56;;;;;;;11.83;6.73;;;15.90;99.90;;;;;;5042961;28;20461;-60
2023/07/09 04:41:22;;;;;;;12.63;7.33;;;15.90;99.90;;;;;;5036751;28;20436;-58
2023/07/09 04:43:48;;;;;;;11.83;6.40;;;16.00;99.90;;;;;;5036823;28;20182;-59
2023/07/09 04:46:13;;;;;;;9.30;6.07;;;16.00;99.90;;;;;;5036798;28;20792;-61
2023/07/09 04:48:39;;;;;;;10.03;6.40;;;16.00;99.90;;;;;;5041558;28;20229;-59
2023/07/09 04:51:05;;;;;;;8.23;5.90;;;16.10;99.90;;;;;;5038710;28;20182;-58
2023/07/09 04:53:31;;;;;;;11.87;6.33;;;16.10;99.90;;;;;;5039325;28;20206;-60
2023/07/09 04:55:56;;;;;;;9.33;6.53;;;16.20;99.90;;;;;;5046936;28;20258;-59
2023/07/09 04:58:22;;;;;;;15.27;6.80;;;16.20;99.90;;;;;;5047987;28;20684;-60
2023/07/09 05:00:50;;;;;;;8.93;6.53;;;16.30;99.90;;;;;;5042201;28;20791;-59
2023/07/09 05:03:18;;;;;;;8.10;5.70;;;16.30;99.90;;;;;;5044330;28;20573;-59
2023/07/09 05:05:45;;;;;;;7.30;6.10;;;16.30;99.90;;;;;;5043270;28;20421;-61
2023/07/09 05:08:12;;;;;;;15.60;6.80;;;16.30;99.90;;;;;;5051463;28;20433;-61
2023/07/09 05:10:50;;;;;;;9.23;6.30;;;16.40;99.90;;;;;;5047998;28;20445;-60
2023/07/09 05:13:17;;;;;;;7.33;6.50;;;16.40;99.90;;;;;;5042305;28;20457;-59
2023/07/09 05:15:45;;;;;;;8.83;6.60;;;16.40;99.90;;;;;;5043580;28;20437;-59
2023/07/09 05:18:13;;;;;;;8.87;5.60;;;16.50;99.90;;;;;;5043610;28;20461;-59
2023/07/09 05:20:40;;;;;;;15.60;6.90;;;16.60;99.90;;;;;;5044897;28;20429;-59
2023/07/09 05:23:05;;;;;;;14.43;6.40;;;16.70;99.90;;;;;;5043869;28;20492;-58
2023/07/09 05:25:31;;;;;;;11.63;6.60;;;16.80;99.90;;;;;;5039656;28;21068;-58
2023/07/09 05:27:57;;;;;;;13.93;5.80;;;16.80;99.90;;;;;;5048177;28;20273;-59
2023/07/09 05:30:23;;;;;;;8.50;5.50;;;16.90;99.90;;;;;;5042976;28;20558;-59
2023/07/09 05:32:48;;;;;;;11.50;6.57;;;16.90;99.90;;;;;;5039130;28;20206;-59
2023/07/09 05:35:14;;;;;;;7.93;6.10;;;17.00;99.90;;;;;;5036017;28;20438;-60
2023/07/09 05:37:40;;;;;;;7.53;6.13;;;17.00;99.90;;;;;;5039473;28;20210;-60
2023/07/09 05:40:07;;;;;;;7.53;6.03;;;17.10;99.90;;;;;;5043898;28;20430;-58
2023/07/09 05:42:33;;;;;;;11.03;6.40;;;17.20;99.90;;;;;;5040466;28;20290;-58
2023/07/09 05:44:59;;;;;;;16.70;6.27;;;17.20;99.90;;;;;;5042548;28;20516;-60
2023/07/09 05:47:25;;;;;;;10.60;6.20;;;17.30;99.90;;;;;;5038021;28;20194;-60
2023/07/09 05:49:51;;;;;;;9.30;6.30;;;17.40;99.90;;;;;;5041348;28;20262;-59
2023/07/09 05:52:18;;;;;;;11.67;6.13;;;17.50;99.90;;;;;;5040725;28;20977;-58
2023/07/09 05:54:44;;;;;;;12.00;6.80;;;17.60;99.90;;;;;;5033879;28;20433;-59
2023/07/09 05:57:10;;;;;;;11.77;6.70;;;17.70;99.90;;;;;;5033590;28;20464;-58
2023/07/09 05:59:36;;;;;;;10.17;6.63;;;17.80;99.20;;;;;;5027301;28;20184;-60
2023/07/09 06:02:03;;;;;;;11.17;6.20;;;17.90;98.60;;;;;;5030296;28;20555;-57
2023/07/09 06:04:30;;;;;;;10.53;5.73;;;18.00;97.50;;;;;;5042225;28;20199;-59
2023/07/09 06:06:56;;;;;;;8.70;6.10;;;18.00;96.10;;;;;;5036628;28;20601;-59
2023/07/09 06:09:22;;;;;;;9.20;6.20;;;18.10;94.10;;;;;;5036694;28;20561;-60
2023/07/09 06:11:47;;;;;;;7.37;6.27;;;18.20;94.80;;;;;;5034245;28;20203;-59
2023/07/09 06:14:13;;;;;;;8.30;5.60;;;18.20;95.80;;;;;;5041445;28;20194;-60
2023/07/09 06:16:38;;;;;;;9.60;6.17;;;18.30;95.00;;;;;;5043023;28;20179;-61
2023/07/09 06:19:04;;;;;;;10.07;6.07;;;18.30;94.60;;;;;;5038326;28;20200;-58
2023/07/09 06:21:30;;;;;;;9.87;6.37;;;18.40;94.30;;;;;;5041992;28;20209;-60
2023/07/09 06:23:55;;;;;;;7.80;5.33;;;18.50;94.50;;;;;;5033992;28;20174;-57
2023/07/09 06:26:21;;;;;;;9.00;5.77;;;18.60;94.10;;;;;;5029157;28;20302;-58
2023/07/09 06:28:47;;;;;;;10.97;5.70;;;18.70;92.90;;;;;;5020684;28;20200;-58
2023/07/09 06:31:12;;;;;;;10.73;4.87;;;18.80;91.30;;;;;;5023509;28;20223;-54
2023/07/09 06:33:38;;;;;;;9.93;5.73;;;18.90;91.10;;;;;;5027168;28;20218;-55
2023/07/09 06:36:04;;;;;;;10.60;5.87;;;19.00;90.50;;;;;;5025858;28;20226;-56
2023/07/09 06:38:30;;;;;;;10.60;6.20;;;19.10;89.30;;;;;;5022787;28;20219;-57
2023/07/09 06:40:57;;;;;;;8.20;5.60;;;19.20;88.00;;;;;;5029069;28;20565;-54
2023/07/09 06:43:23;;;;;;;9.30;5.50;;;19.30;86.70;;;;;;5029479;28;20207;-56
2023/07/09 06:45:50;;;;;;;8.73;5.57;;;19.50;85.40;;;;;;5033508;28;20434;-55
2023/07/09 06:48:16;;;;;;;8.33;5.67;;;19.60;86.10;;;;;;5039346;28;20257;-55
2023/07/09 06:50:42;;;;;;;15.30;7.10;;;19.70;85.50;;;;;;5036899;28;21052;-53
2023/07/09 06:53:07;;;;;;;14.53;6.67;;;19.90;83.90;;;;;;5035676;28;20199;-55
2023/07/09 06:55:33;;;;;;;11.70;6.13;;;20.10;82.00;;;;;;5032075;28;20180;-56
2023/07/09 06:57:59;;;;;;;11.20;6.40;;;20.30;81.60;;;;;;5032931;28;20290;-57
2023/07/09 07:00:25;;;;;;;9.40;5.70;;;20.40;78.80;;;;;;5035511;28;20691;-53
2023/07/09 07:02:50;;;;;;;10.90;6.03;;;20.60;78.00;;;;;;5031109;28;20198;-55
2023/07/09 07:05:17;;;;;;;8.27;6.00;;;20.70;77.30;;;;;;5029404;28;20179;-57
2023/07/09 07:07:44;;;;;;;10.43;6.30;;;20.80;75.80;;;;;;5036510;28;20292;-55
2023/07/09 07:10:10;;;;;;;9.50;6.77;;;20.90;74.30;;;;;;5030903;28;20439;-57
2023/07/09 07:12:44;;;;;;;9.70;5.50;;;21.00;74.80;;;;;;5036625;28;20454;-54
2023/07/09 07:15:12;;;;;;;15.13;5.83;;;21.20;74.50;;;;;;5026359;28;20426;-57
2023/07/09 07:17:37;;;;;;;10.73;5.60;;;21.30;73.10;;;;;;5036857;28;20457;-54
2023/07/09 07:20:03;;;;;;;9.10;5.73;;;21.30;71.90;;;;;;5034823;28;20816;-57
2023/07/09 07:22:29;;;;;;;10.90;6.23;;;21.40;71.60;;;;;;5035128;28;20215;-54
2023/07/09 07:24:54;;;;;;;7.37;5.80;;;21.50;71.90;;;;;;5034406;28;20179;-59
2023/07/09 07:27:20;;;;;;;7.67;6.20;;;21.70;71.80;;;;;;5030036;28;20194;-55
2023/07/09 07:29:46;;;;;;;7.60;5.87;;;21.80;70.70;;;;;;5032892;28;20184;-59
2023/07/09 07:32:11;;;;;;;7.53;5.30;;;21.90;70.20;;;;;;5030064;28;20203;-59
2023/07/09 07:34:37;;;;;;;8.00;5.80;;;22.00;69.90;;;;;;5036413;28;20691;-59
2023/07/09 07:37:03;;;;;;;10.47;6.17;;;22.10;69.90;;;;;;5035856;28;20305;-59
2023/07/09 07:39:28;;;;;;;9.00;5.57;;;22.30;70.30;;;;;;5034134;28;20191;-58
2023/07/09 07:41:55;;;;;;;7.30;5.50;;;22.40;70.10;;;;;;5043078;28;20811;-60
2023/07/09 07:44:22;;;;;;;8.73;5.60;;;22.60;69.40;;;;;;5037925;28;20241;-60
2023/07/09 07:46:47;;;;;;;10.80;6.50;;;22.70;67.60;;;;;;5042722;28;20826;-59
2023/07/09 07:49:13;;;;;;;9.03;4.90;;;22.80;67.50;;;;;;5047298;28;20414;-61
2023/07/09 07:51:39;;;;;;;9.60;6.10;;;23.00;66.60;;;;;;5023536;28;20203;-57
2023/07/09 07:54:05;;;;;;;11.43;5.60;;;23.10;65.00;;;;;;5031519;28;20193;-59
2023/07/09 07:56:31;;;;;;;9.17;5.33;;;23.20;65.00;;;;;;5033094;28;20202;-58
2023/07/09 07:58:56;;;;;;;9.07;5.40;;;23.40;64.90;;;;;;5037718;28;20999;-61
2023/07/09 08:01:22;;;;;;;13.60;5.13;;;23.50;64.40;;;;;;5032173;28;20180;-58
2023/07/09 08:03:47;;;;;;;7.50;5.57;;;23.60;62.60;;;;;;5028245;28;20688;-60
2023/07/09 08:06:13;;;;;;;10.20;5.53;;;23.70;61.90;;;;;;5027009;28;20211;-59
2023/07/09 08:08:38;;;;;;;9.10;5.60;;;23.80;61.60;;;;;;5023777;28;20198;-59
2023/07/09 08:11:07;;;;;;;9.23;5.60;;;24.00;61.00;;;;;;5018666;28;20256;-60
2023/07/09 08:13:38;;;;;;;8.90;5.33;;;24.10;60.70;;;;;;5017405;28;20656;-59
2023/07/09 08:16:05;;;;;;;7.53;4.93;;;24.20;60.00;;;;;;5022557;28;20434;-59
2023/07/09 08:18:31;;;;;;;9.23;4.60;;;24.30;58.90;;;;;;5021194;28;20494;-60
2023/07/09 08:20:57;;;;;;;8.80;5.03;;;24.40;58.80;;;;;;5030441;28;20429;-58
2023/07/09 08:23:23;;;;;;;6.33;4.70;;;24.60;58.70;;;;;;5030319;28;20999;-58
2023/07/09 08:25:59;;;;;;;8.47;4.70;;;24.80;58.80;;;;;;5032806;28;20437;-58
2023/07/09 08:28:25;;;;;;;9.10;4.70;;;24.90;57.80;;;;;;5036473;28;20300;-59
2023/07/09 08:30:54;;;;;;;7.97;5.30;;;25.00;57.50;;;;;;5024652;28;20441;-60
2023/07/09 08:33:20;;;;;;;5.83;5.03;;;25.20;57.80;;;;;;5020253;28;20565;-58
2023/07/09 08:35:48;;;;;;;8.47;4.40;;;25.40;57.90;;;;;;5012013;28;20452;-57
2023/07/09 08:38:14;;;;;;;7.23;4.13;;;25.60;57.10;;;;;;5023224;28;21102;-58
2023/07/09 08:40:44;;;;;;;7.90;4.80;;;25.70;56.40;;;;;;5037092;28;20431;-59
2023/07/09 08:43:38;;;;;;;8.77;4.87;;;25.80;55.60;;;;;;5049496;28;20198;-60
2023/07/09 08:46:16;;;;;;;7.40;5.00;;;25.90;55.30;;;;;;5037354;28;20439;-59
2023/07/09 08:48:45;;;;;;;7.30;4.60;;;26.00;55.20;;;;;;5051276;28;20428;-57
2023/07/09 08:51:35;;;;;;;4.93;3.70;;;26.10;55.20;;;;;;5045453;28;20448;-60
2023/07/09 08:54:00;;;;;;;6.30;4.00;;;26.20;54.20;;;;;;5046294;28;20401;-60
2023/07/09 08:56:30;;;;;;;4.60;3.73;;;26.30;53.20;;;;;;5042245;28;20497;-60
2023/07/09 08:59:00;;;;;;;4.97;4.27;;;26.50;52.00;;;;;;5042157;28;20289;-60
2023/07/09 09:01:32;;;;;;;6.00;4.10;;;26.70;51.60;;;;;;5042350;28;20258;-61
2023/07/09 09:04:18;;;;;;;7.93;3.60;;;26.80;51.30;;;;;;5043316;28;20174;-59
2023/07/09 09:06:50;;;;;;;7.90;4.10;;;26.90;51.30;;;;;;5049423;28;20197;-58
2023/07/09 09:09:22;;;;;;;7.30;3.80;;;27.10;50.70;;;;;;5051285;28;20178;-58
2023/07/09 09:11:57;;;;;;;6.20;3.90;;;27.20;50.30;;;;;;5050470;28;20665;-58
2023/07/09 09:14:42;;;;;;;7.30;4.90;;;27.20;49.90;;;;;;5043106;28;20261;-57
2023/07/09 09:17:19;;;;;;;8.00;3.90;;;27.30;49.60;;;;;;5047743;28;20199;-58
2023/07/09 09:19:55;;;;;;;5.33;4.00;;;27.50;48.20;;;;;;5042103;28;20627;-60
2023/07/09 09:22:55;;;;;;;6.73;3.83;;;27.60;47.40;;;;;;5047833;28;20194;-58
2023/07/09 09:25:28;;;;;;;5.67;3.70;;;27.70;47.90;;;;;;5040802;28;20175;-56
2023/07/09 09:27:54;;;;;;;5.40;3.83;;;27.80;46.10;;;;;;5044049;28;20183;-57
2023/07/09 09:30:23;;;;;;;5.50;3.70;;;27.80;47.10;;;;;;5042744;28;20703;-58
2023/07/09 09:32:54;;;;;;;6.70;3.80;;;27.90;47.50;;;;;;5047073;28;20203;-58
2023/07/09 09:35:29;;;;;;;4.93;3.80;;;28.00;48.60;;;;;;5047061;28;20762;-59
2023/07/09 09:37:56;;;;;;;8.03;3.40;;;28.20;48.00;;;;;;5041753;28;20259;-58
2023/07/09 09:40:24;;;;;;;7.30;4.50;;;28.40;47.60;;;;;;5050585;28;20166;-58
2023/07/09 09:42:53;;;;;;;6.13;3.65;;;28.50;47.50;;;;;;5042728;28;20840;-58
2023/07/09 09:45:21;;;;;;;5.75;3.47;;;28.60;48.10;;;;;;5042698;28;20190;-57
2023/07/09 09:47:48;;;;;;;5.07;3.88;;;28.70;47.10;;;;;;5044080;28;20182;-56
2023/07/09 09:50:19;;;;;;;3.53;2.78;;;28.80;46.80;;;;;;5050192;28;20186;-61
2023/07/09 09:52:46;;;;;;;8.10;3.70;;;28.90;46.30;;;;;;5041283;28;20613;-56
2023/07/09 09:55:19;;;;;;;5.90;3.85;;;29.00;44.30;;;;;;5041255;28;20182;-57
2023/07/09 09:57:50;;;;;;;6.45;4.13;;;29.00;44.50;;;;;;5048994;28;20347;-59
2023/07/09 10:00:16;;;;;;;6.68;3.85;;;29.00;45.30;;;;;;5039077;28;20739;-58
2023/07/09 10:02:42;;;;;;;6.10;3.30;;;29.10;45.40;;;;;;5053908;28;20203;-57
2023/07/09 10:05:25;;;;;;;6.50;3.30;;;29.30;45.70;;;;;;5048195;28;20883;-58
2023/07/09 10:08:13;;;;;;;5.10;3.42;;;29.40;45.20;;;;;;5050488;28;20237;-58
2023/07/09 10:10:43;;;;;;;6.05;3.55;;;29.50;44.10;;;;;;5047507;28;20190;-57
2023/07/09 10:13:26;;;;;;;4.93;3.35;;;29.70;44.30;;;;;;5051147;28;20198;-59
2023/07/09 10:16:19;;;;;;;6.38;3.40;;;29.80;44.70;;;;;;5044606;28;20643;-55
2023/07/09 10:19:20;;;;;;;5.45;3.60;;;30.00;42.80;;;;;;5044518;28;20207;-60
2023/07/09 10:22:00;;;;;;;6.22;3.85;;;30.10;42.70;;;;;;5042728;28;20201;-59
2023/07/09 10:24:49;;;;;;;7.55;3.40;;;30.10;42.50;;;;;;5050198;28;20190;-60
2023/07/09 10:27:41;;;;;;;7.03;4.57;;;30.20;43.90;;;;;;5041047;28;20181;-58
2023/07/09 10:30:12;;;;;;;7.28;3.20;;;30.20;42.60;;;;;;5038896;28;20172;-60
2023/07/09 10:32:57;;;;;;;3.85;3.20;;;30.30;42.30;;;;;;5048030;28;20223;-60
2023/07/09 10:35:37;;;;;;;4.55;3.17;;;30.30;43.40;;;;;;5048064;28;20269;-60
2023/07/09 10:38:12;;;;;;;5.97;3.17;;;30.50;41.90;;;;;;5022249;28;20216;-58
2023/07/09 10:40:43;;;;;;;6.05;3.35;;;30.70;41.80;;;;;;5043154;28;20176;-61
2023/07/09 10:43:16;;;;;;;7.65;3.67;;;30.80;41.40;;;;;;5042920;28;20240;-60
2023/07/09 10:45:54;;;;;;;9.05;3.45;;;30.90;40.80;;;;;;5048625;28;20233;-59
2023/07/09 10:48:41;;;;;;;8.05;3.30;;;31.10;41.80;;;;;;5047185;28;20773;-58
2023/07/09 10:51:43;;;;;;;9.57;3.80;;;31.10;41.10;;;;;;5044165;28;20173;-60
2023/07/09 10:54:14;;;;;;;5.30;3.35;;;31.30;41.50;;;;;;5047995;28;20262;-61
2023/07/09 10:56:42;;;;;;;7.28;4.38;;;31.50;40.90;;;;;;5043355;28;20544;-60
2023/07/09 10:59:29;;;;;;;5.97;3.70;;;31.60;40.90;;;;;;5045125;28;20209;-60
2023/07/09 11:02:00;;;;;;;6.22;3.30;;;31.70;39.80;;;;;;5045581;28;20576;-61
2023/07/09 11:04:26;;;;;;;5.85;3.15;;;31.70;39.70;;;;;;5045704;28;20776;-60
2023/07/09 11:06:54;;;;;;;9.45;3.58;;;31.70;38.90;;;;;;5048842;28;20179;-59
2023/07/09 11:09:33;;;;;;;7.55;3.65;;;31.70;38.40;;;;;;5050016;28;20169;-59
2023/07/09 11:12:26;;;;;;;3.63;3.22;;;31.60;38.80;;;;;;5045195;28;20754;-60
2023/07/09 11:14:59;;;;;;;9.70;4.15;;;31.70;39.20;;;;;;5037242;28;20179;-58
2023/07/09 11:17:28;;;;;;;3.10;2.80;;;31.80;40.10;;;;;;5048059;28;20190;-59
2023/07/09 11:19:59;;;;;;;10.82;3.38;;;31.90;39.00;;;;;;5049761;28;20182;-60
2023/07/09 11:22:40;;;;;;;5.35;3.13;;;32.10;38.00;;;;;;5039352;28;20201;-60
2023/07/09 11:25:06;;;;;;;8.13;3.55;;;32.20;38.80;;;;;;5043954;28;20178;-59
2023/07/09 11:27:32;;;;;;;3.88;3.00;;;32.40;38.20;;;;;;5049684;28;20191;-60
2023/07/09 11:30:17;;;;;;;5.90;3.53;;;32.40;37.60;;;;;;5049037;28;20814;-59
2023/07/09 11:32:51;;;;;;;3.80;3.10;;;32.50;37.80;;;;;;5037624;28;20275;-60
2023/07/09 11:35:21;;;;;;;6.55;3.20;;;32.60;37.50;;;;;;5044400;28;20582;-60
2023/07/09 11:37:47;;;;;;;10.60;3.70;;;32.70;37.00;;;;;;5049038;28;20252;-59
2023/07/09 11:40:14;;;;;;;4.50;3.42;;;32.70;37.00;;;;;;5042759;28;20664;-60
2023/07/09 11:42:57;;;;;;;6.63;3.20;;;32.80;36.30;;;;;;5048288;28;20207;-58
2023/07/09 11:45:33;;;;;;;5.13;3.60;;;32.90;36.10;;;;;;5041564;28;20185;-61
2023/07/09 11:48:22;;;;;;;16.85;4.15;;;33.00;35.30;;;;;;5043838;28;20725;-61
2023/07/09 11:50:51;;;;;;;5.30;2.75;;;33.00;34.30;;;;;;5047230;28;20651;-60
2023/07/09 11:53:53;;;;;;;6.10;3.22;;;32.90;35.30;;;;;;5042428;28;20231;-60
2023/07/09 11:56:21;;;;;;;5.18;2.95;;;32.70;34.20;;;;;;5044571;28;20236;-59
2023/07/09 11:58:57;;;;;;;9.10;3.50;;;32.50;34.80;;;;;;5038103;28;20211;-58
2023/07/09 12:01:36;;;;;;;8.32;3.67;;;32.40;35.80;;;;;;5046023;28;20185;-57
2023/07/09 12:04:03;;;;;;;7.45;3.50;;;32.50;35.20;;;;;;5038995;28;20182;-59
2023/07/09 12:06:32;;;;;;;7.15;3.45;;;32.60;35.00;;;;;;5039457;28;20250;-61
2023/07/09 12:08:59;;;;;;;5.68;2.88;;;32.60;35.10;;;;;;5040917;28;20188;-59
2023/07/09 12:11:30;;;;;;;14.35;3.30;;;32.70;36.50;;;;;;5040150;28;20180;-61
2023/07/09 12:14:04;;;;;;;7.95;3.40;;;32.70;35.90;;;;;;5044184;28;20170;-59
2023/07/09 12:16:35;;;;;;;5.00;3.58;;;32.60;35.00;;;;;;5042377;28;20269;-60
2023/07/09 12:19:00;;;;;;;5.40;3.20;;;32.60;35.10;;;;;;5044687;28;20688;-59
2023/07/09 12:21:27;;;;;;;5.47;3.33;;;32.70;35.60;;;;;;5048533;28;20269;-61
2023/07/09 12:23:55;;;;;;;6.05;3.03;;;33.00;35.70;;;;;;5046732;28;20572;-58
2023/07/09 12:26:21;;;;;;;4.75;3.38;;;33.30;35.50;;;;;;5040970;28;20715;-60
2023/07/09 12:28:55;;;;;;;6.65;3.53;;;33.50;34.40;;;;;;5025024;28;20190;-56
2023/07/09 12:31:27;;;;;;;5.80;3.33;;;33.70;33.40;;;;;;5045814;28;20190;-58
2023/07/09 12:33:54;;;;;;;6.53;3.25;;;33.90;33.50;;;;;;5039987;28;20201;-61
2023/07/09 12:36:21;;;;;;;4.82;3.40;;;34.10;34.20;;;;;;5045183;28;20179;-59
2023/07/09 12:38:50;;;;;;;8.52;3.25;;;34.20;33.00;;;;;;5045206;28;20301;-59
2023/07/09 12:41:41;;;;;;;6.43;3.33;;;34.50;31.40;;;;;;5048466;28;20167;-60
2023/07/09 12:44:27;;;;;;;4.28;3.13;;;34.60;31.10;;;;;;5037408;28;20229;-60
2023/07/09 12:46:54;;;;;;;6.38;3.10;;;34.70;30.40;;;;;;5047632;28;20261;-61
2023/07/09 12:49:37;;;;;;;6.20;2.95;;;34.70;30.10;;;;;;5036185;28;20228;-60
2023/07/09 12:52:09;;;;;;;8.18;3.35;;;34.80;30.70;;;;;;5039087;28;20285;-59
2023/07/09 12:54:34;;;;;;;4.40;2.60;;;34.80;29.80;;;;;;5042642;28;20269;-60